createdAt,value
2022-09-05T00:00:19.642Z,2.40
2022-09-05T00:03:23.557Z,2.25
2022-09-05T00:06:11.537Z,2.47
2022-09-05T00:09:04.615Z,2.80
2022-09-05T00:11:46.284Z,2.42
2022-09-05T00:14:57.299Z,2.80
2022-09-05T00:20:16.837Z,2.08
2022-09-05T00:24:22.347Z,2.40
2022-09-05T00:24:31.030Z,2.35
2022-09-05T00:26:45.232Z,2.50
2022-09-05T00:31:06.225Z,2.50
2022-09-05T00:32:48.128Z,2.50
2022-09-05T00:35:35.727Z,2.22
2022-09-05T00:38:16.683Z,2.20
2022-09-05T00:40:52.709Z,2.65
2022-09-05T00:43:25.368Z,2.50
2022-09-05T00:46:18.688Z,3.42
2022-09-05T00:49:39.790Z,2.85
2022-09-05T00:52:17.617Z,3.38
2022-09-05T00:54:54.666Z,2.95
2022-09-05T00:57:24.779Z,2.65
2022-09-05T01:00:08.196Z,2.60
2022-09-05T01:02:51.628Z,3.05
2022-09-05T01:05:46.822Z,3.40
2022-09-05T01:08:52.277Z,2.92
2022-09-05T01:11:44.718Z,2.90
2022-09-05T01:14:56.568Z,2.88
2022-09-05T01:17:44.524Z,2.63
2022-09-05T01:20:43.373Z,3.50
2022-09-05T01:23:31.703Z,2.47
2022-09-05T01:26:39.499Z,2.95
2022-09-05T01:29:32.703Z,2.50
2022-09-05T01:32:06.587Z,2.85
2022-09-05T01:35:16.251Z,2.72
2022-09-05T01:37:59.177Z,3.00
2022-09-05T01:40:34.627Z,3.00
2022-09-05T01:43:01.336Z,2.38
2022-09-05T01:45:57.301Z,2.70
2022-09-05T01:48:47.432Z,2.08
2022-09-05T01:51:48.066Z,2.45
2022-09-05T01:54:40.344Z,2.45
2022-09-05T01:57:28.901Z,3.17
2022-09-05T02:00:18.138Z,2.97
2022-09-05T02:02:54.201Z,2.88
2022-09-05T02:05:48.235Z,2.70
2022-09-05T02:08:38.966Z,2.35
2022-09-05T02:11:10.047Z,3.75
2022-09-05T02:13:49.314Z,2.42
2022-09-05T02:16:29.222Z,2.40
2022-09-05T02:19:15.081Z,2.67
2022-09-05T02:22:01.718Z,2.97
2022-09-05T02:24:36.523Z,2.60
2022-09-05T02:28:03.648Z,2.53
2022-09-05T02:30:25.812Z,2.47
2022-09-05T02:33:11.391Z,2.30
2022-09-05T02:36:07.709Z,2.85
2022-09-05T02:45:08.518Z,2.78
2022-09-05T02:45:14.353Z,2.20
2022-09-05T02:47:40.620Z,2.83
2022-09-05T02:53:27.276Z,2.47
2022-09-05T02:57:37.219Z,3.17
2022-09-05T02:57:39.220Z,3.67
2022-09-05T02:59:09.617Z,2.72
2022-09-05T03:02:25.635Z,2.60
2022-09-05T03:05:10.050Z,2.42
2022-09-05T03:07:49.722Z,2.50
2022-09-05T03:10:55.027Z,2.80
2022-09-05T03:13:33.133Z,2.20
2022-09-05T03:16:28.255Z,2.50
2022-09-05T03:19:01.374Z,2.72
2022-09-05T03:22:08.084Z,2.95
2022-09-05T03:25:01.030Z,2.67
2022-09-05T03:27:55.526Z,2.35
2022-09-05T03:30:29.124Z,2.63
2022-09-05T03:33:18.180Z,2.28
2022-09-05T03:35:53.847Z,2.45
2022-09-05T03:38:59.245Z,2.50
2022-09-05T03:41:48.022Z,2.35
2022-09-05T03:44:37.931Z,2.35
2022-09-05T03:47:38.953Z,2.65
2022-09-05T03:56:48.638Z,2.17
2022-09-05T03:57:11.362Z,2.00
2022-09-05T03:57:15.201Z,2.42
2022-09-05T04:00:03.752Z,2.45
2022-09-05T04:07:04.960Z,2.50
2022-09-05T04:08:14.570Z,2.25
2022-09-05T04:09:04.249Z,2.40
2022-09-05T04:11:42.300Z,2.63
2022-09-05T04:14:51.946Z,3.15
2022-09-05T04:17:44.676Z,2.97
2022-09-05T04:20:17.550Z,2.85
2022-09-05T04:23:05.504Z,2.78
2022-09-05T04:26:12.186Z,2.88
2022-09-05T04:28:54.073Z,2.67
2022-09-05T04:31:26.985Z,2.80
2022-09-05T04:34:21.588Z,2.55
2022-09-05T04:37:00.825Z,2.78
2022-09-05T04:42:01.481Z,2.78
2022-09-05T04:44:34.348Z,2.58
2022-09-05T04:47:09.534Z,2.50
2022-09-05T04:49:41.437Z,3.30
2022-09-05T04:52:34.175Z,3.20
2022-09-05T04:55:03.145Z,3.22
2022-09-05T04:57:51.016Z,2.92
2022-09-05T05:05:58.462Z,3.10
2022-09-05T05:06:10.849Z,2.70
2022-09-05T05:06:38.407Z,3.50
2022-09-05T05:09:17.988Z,3.10
2022-09-05T05:18:02.674Z,3.50
2022-09-05T05:18:12.792Z,2.65
2022-09-05T05:18:39.325Z,2.83
2022-09-05T05:21:10.146Z,2.90
2022-09-05T05:23:39.153Z,3.00
2022-09-05T05:26:09.718Z,2.63
2022-09-05T05:28:50.879Z,2.67
2022-09-05T05:31:39.354Z,3.20
2022-09-05T05:34:23.927Z,3.15
2022-09-05T05:37:13.167Z,2.83
2022-09-05T05:39:46.289Z,3.13
2022-09-05T05:42:21.375Z,3.55
2022-09-05T05:45:01.735Z,2.80
2022-09-05T05:47:32.123Z,2.70
2022-09-05T05:50:18.700Z,3.03
2022-09-05T05:53:36.346Z,3.15
2022-09-05T05:56:28.035Z,2.97
2022-09-05T05:59:04.185Z,3.50
2022-09-05T06:01:53.759Z,3.05
2022-09-05T06:07:25.742Z,2.95
2022-09-05T06:14:49.273Z,3.42
2022-09-05T06:15:02.949Z,3.58
2022-09-05T06:17:05.618Z,3.33
2022-09-05T06:20:28.760Z,3.92
2022-09-05T06:23:00.195Z,3.63
2022-09-05T06:25:54.356Z,3.47
2022-09-05T06:28:38.748Z,4.07
2022-09-05T06:31:46.001Z,4.50
2022-09-05T06:34:35.516Z,3.67
2022-09-05T06:37:12.301Z,4.18
2022-09-05T06:39:48.856Z,3.83
2022-09-05T06:42:42.194Z,3.15
2022-09-05T06:45:27.338Z,3.55
2022-09-05T06:48:17.116Z,3.80
2022-09-05T06:51:09.046Z,3.40
2022-09-05T06:53:47.989Z,3.30
2022-09-05T06:56:29.591Z,3.08
2022-09-05T06:59:04.637Z,2.58
2022-09-05T07:02:00.170Z,2.33
2022-09-05T07:05:23.893Z,2.15
2022-09-05T07:07:57.200Z,2.45
2022-09-05T07:10:53.507Z,2.30
2022-09-05T07:13:29.067Z,2.22
2022-09-05T07:15:56.874Z,2.88
2022-09-05T07:18:45.815Z,2.05
2022-09-05T07:21:35.266Z,1.60
2022-09-05T07:24:11.146Z,1.77
2022-09-05T07:26:54.694Z,1.55
2022-09-05T07:29:53.503Z,1.40
2022-09-05T07:32:30.116Z,1.90
2022-09-05T07:35:03.836Z,1.67
2022-09-05T07:37:41.151Z,1.90
2022-09-05T07:40:25.855Z,1.80
2022-09-05T07:43:09.437Z,2.17
2022-09-05T07:45:47.739Z,2.17
2022-09-05T07:48:34.796Z,1.75
2022-09-05T07:56:47.566Z,2.33
2022-09-05T07:57:09.948Z,2.15
2022-09-05T07:59:38.089Z,2.40
2022-09-05T08:02:08.302Z,1.80
2022-09-05T08:04:37.270Z,1.98
2022-09-05T08:07:47.700Z,1.60
2022-09-05T08:10:17.915Z,1.80
2022-09-05T08:13:23.613Z,2.50
2022-09-05T08:16:13.284Z,2.15
2022-09-05T08:18:46.334Z,1.75
2022-09-05T08:21:31.300Z,1.90
2022-09-05T08:24:13.307Z,1.67
2022-09-05T08:26:53.610Z,2.05
2022-09-05T08:29:32.390Z,1.67
2022-09-05T08:32:11.389Z,1.77
2022-09-05T08:37:21.605Z,1.63
2022-09-05T08:40:09.646Z,1.42
2022-09-05T08:46:35.274Z,1.88
2022-09-05T08:46:40.697Z,1.55
2022-09-05T08:49:36.896Z,1.48
2022-09-05T08:52:14.315Z,1.40
2022-09-05T08:55:06.793Z,1.25
2022-09-05T08:57:47.869Z,1.55
2022-09-05T09:00:19.898Z,1.40
2022-09-05T09:03:25.993Z,1.30
2022-09-05T09:06:14.425Z,1.25
2022-09-05T09:08:55.897Z,1.23
2022-09-05T09:11:32.164Z,1.77
2022-09-05T09:14:37.901Z,1.90
2022-09-05T09:17:29.321Z,1.00
2022-09-05T09:20:33.689Z,1.73
2022-09-05T09:23:31.806Z,1.25
2022-09-05T09:26:11.282Z,1.45
2022-09-05T09:31:20.856Z,1.63
2022-09-05T09:34:09.267Z,2.47
2022-09-05T09:37:00.755Z,1.58
2022-09-05T09:39:37.585Z,2.65
2022-09-05T09:42:40.033Z,2.22
2022-09-05T09:45:27.809Z,1.63
2022-09-05T09:48:10.905Z,1.23
2022-09-05T09:51:00.518Z,1.10
2022-09-05T09:53:54.231Z,1.20
2022-09-05T09:56:32.849Z,1.17
2022-09-05T09:59:12.683Z,1.50
2022-09-05T10:01:54.467Z,1.35
2022-09-05T10:10:33.768Z,0.90
2022-09-05T10:10:46.672Z,1.10
2022-09-05T10:14:47.747Z,0.93
2022-09-05T10:17:29.864Z,1.35
2022-09-05T10:20:16.104Z,1.25
2022-09-05T10:23:18.161Z,1.30
2022-09-05T10:25:50.342Z,0.98
2022-09-05T10:28:49.592Z,1.10
2022-09-05T10:35:10.888Z,1.30
2022-09-05T10:35:14.557Z,1.40
2022-09-05T10:37:16.710Z,1.33
2022-09-05T10:39:51.365Z,1.40
2022-09-05T10:42:55.529Z,1.10
2022-09-05T10:45:38.487Z,1.30
2022-09-05T10:48:25.841Z,1.17
2022-09-05T10:51:27.331Z,0.90
2022-09-05T10:54:04.094Z,1.25
2022-09-05T10:56:37.957Z,1.30
2022-09-05T11:00:52.123Z,1.30
2022-09-05T11:02:34.923Z,0.90
2022-09-05T11:05:17.282Z,1.10
2022-09-05T11:08:06.095Z,1.35
2022-09-05T11:10:55.675Z,2.10
2022-09-05T11:13:46.427Z,1.05
2022-09-05T11:16:40.681Z,0.90
2022-09-05T11:19:35.157Z,1.27
2022-09-05T11:22:22.851Z,1.00
2022-09-05T11:25:02.787Z,1.55
2022-09-05T11:27:33.448Z,1.17
2022-09-05T11:30:29.116Z,1.20
2022-09-05T11:38:24.015Z,1.10
2022-09-05T11:39:54.895Z,1.13
2022-09-05T11:40:08.726Z,1.30
2022-09-05T11:42:14.969Z,1.00
2022-09-05T11:45:07.215Z,1.00
2022-09-05T11:48:13.068Z,1.10
2022-09-05T11:50:52.259Z,1.10
2022-09-05T11:53:51.651Z,1.52
2022-09-05T11:56:45.885Z,1.42
2022-09-05T12:00:30.708Z,0.95
2022-09-05T12:03:00.824Z,0.93
2022-09-05T12:05:58.956Z,1.08
2022-09-05T12:08:36.083Z,1.55
2022-09-05T12:11:24.819Z,1.10
2022-09-05T12:14:13.755Z,0.95
2022-09-05T12:16:56.811Z,1.25
2022-09-05T12:19:54.841Z,1.30
2022-09-05T12:22:33.915Z,1.42
2022-09-05T12:25:27.512Z,1.33
2022-09-05T12:29:27.445Z,1.42
2022-09-05T12:33:28.395Z,0.95
2022-09-05T12:36:09.704Z,1.60
2022-09-05T12:40:25.363Z,1.55
2022-09-05T12:41:33.509Z,1.40
2022-09-05T12:43:38.622Z,1.23
2022-09-05T12:48:38.886Z,1.30
2022-09-05T12:51:45.750Z,1.23
2022-09-05T12:54:32.717Z,1.48
2022-09-05T13:00:03.955Z,1.60
2022-09-05T13:03:05.040Z,1.58
2022-09-05T13:03:26.869Z,0.95
2022-09-05T13:06:05.367Z,1.70
2022-09-05T13:08:59.109Z,1.13
2022-09-05T13:14:57.661Z,1.38
2022-09-05T13:15:02.617Z,1.30
2022-09-05T13:17:14.007Z,1.30
2022-09-05T13:19:47.419Z,1.25
2022-09-05T13:22:15.627Z,1.20
2022-09-05T13:24:45.776Z,1.75
2022-09-05T13:27:21.669Z,0.88
2022-09-05T13:30:09.854Z,2.08
2022-09-05T13:38:08.368Z,1.50
2022-09-05T13:38:29.060Z,1.17
2022-09-05T13:38:49.484Z,0.80
2022-09-05T13:41:33.304Z,1.05
2022-09-05T13:44:25.744Z,0.90
2022-09-05T13:46:59.090Z,0.70
2022-09-05T13:49:31.661Z,0.90
2022-09-05T13:52:13.515Z,0.60
2022-09-05T13:54:54.428Z,0.82
2022-09-05T13:57:33.804Z,0.77
2022-09-05T14:00:06.594Z,0.90
2022-09-05T14:05:34.604Z,0.95
2022-09-05T14:08:17.856Z,0.70
2022-09-05T14:11:17.327Z,1.10
2022-09-05T14:13:52.724Z,1.33
2022-09-05T14:16:29.259Z,0.80
2022-09-05T14:19:14.546Z,0.90
2022-09-05T14:21:44.154Z,1.17
2022-09-05T14:24:14.441Z,0.85
2022-09-05T14:27:06.286Z,0.80
2022-09-05T14:29:44.454Z,0.60
2022-09-05T14:37:36.063Z,0.80
2022-09-05T14:37:45.868Z,0.82
2022-09-05T14:38:46.722Z,0.80
2022-09-05T14:41:36.565Z,0.63
2022-09-05T14:44:18.920Z,0.80
2022-09-05T14:46:51.751Z,0.77
2022-09-05T14:49:25.697Z,0.68
2022-09-05T14:51:53.061Z,0.68
2022-09-05T15:00:51.024Z,0.85
2022-09-05T15:02:49.656Z,0.63
2022-09-05T15:03:05.937Z,0.80
2022-09-05T15:05:40.044Z,0.82
2022-09-05T15:08:24.106Z,1.20
2022-09-05T15:12:16.063Z,0.70
2022-09-05T15:14:03.616Z,0.73
2022-09-05T15:16:38.628Z,1.42
2022-09-05T15:19:05.918Z,0.93
2022-09-05T15:21:38.090Z,1.08
2022-09-05T15:24:17.486Z,0.60
2022-09-05T15:26:57.916Z,0.60
2022-09-05T15:29:30.242Z,0.63
2022-09-05T15:32:17.800Z,0.73
2022-09-05T15:34:45.223Z,0.63
2022-09-05T15:37:26.376Z,0.95
2022-09-05T15:40:23.090Z,0.77
2022-09-05T15:42:51.030Z,0.60
2022-09-05T15:45:22.307Z,1.10
2022-09-05T15:48:02.542Z,0.80
2022-09-05T15:50:29.354Z,0.65
2022-09-05T15:53:00.870Z,1.80
2022-09-05T15:55:27.674Z,0.85
2022-09-05T15:57:59.536Z,0.75
2022-09-05T16:00:51.992Z,1.10
2022-09-05T16:05:53.342Z,0.80
2022-09-05T16:10:27.813Z,0.70
2022-09-05T16:10:49.207Z,0.93
2022-09-05T16:14:45.171Z,0.70
2022-09-05T16:23:13.469Z,0.60
2022-09-05T16:23:23.855Z,1.00
2022-09-05T16:23:51.096Z,1.00
2022-09-05T16:26:29.438Z,1.05
2022-09-05T16:29:03.212Z,1.27
2022-09-05T16:31:49.310Z,1.25
2022-09-05T16:34:28.019Z,0.70
2022-09-05T16:37:09.412Z,0.60
2022-09-05T16:39:41.722Z,1.20
2022-09-05T16:42:17.479Z,0.90
2022-09-05T16:45:03.882Z,0.70
2022-09-05T16:47:54.313Z,1.05
2022-09-05T16:50:34.517Z,0.82
2022-09-05T16:53:04.086Z,0.90
2022-09-05T16:56:02.307Z,1.30
2022-09-05T17:01:36.405Z,1.10
2022-09-05T17:04:40.302Z,0.82
2022-09-05T17:07:42.582Z,1.27
2022-09-05T17:10:25.750Z,0.90
2022-09-05T17:12:56.489Z,1.42
2022-09-05T17:15:28.166Z,1.10
2022-09-05T17:18:25.183Z,1.10
2022-09-05T17:20:59.518Z,1.25
2022-09-05T17:29:18.960Z,1.15
2022-09-05T17:29:39.123Z,1.30
2022-09-05T17:32:49.607Z,1.30
2022-09-05T17:35:54.752Z,1.58
2022-09-05T17:38:43.453Z,1.95
2022-09-05T17:41:25.449Z,1.90
2022-09-05T17:44:10.848Z,2.55
2022-09-05T17:46:51.189Z,2.92
2022-09-05T17:49:43.237Z,1.90
2022-09-05T17:52:19.691Z,2.85
2022-09-05T17:55:10.795Z,1.80
2022-09-05T17:57:41.365Z,1.55
2022-09-05T18:00:48.767Z,1.60
2022-09-05T18:03:45.025Z,1.60
2022-09-05T18:06:14.615Z,1.80
2022-09-05T18:08:46.434Z,1.98
2022-09-05T18:14:14.934Z,1.50
2022-09-05T18:17:35.212Z,1.48
2022-09-05T18:19:43.841Z,2.13
2022-09-05T18:22:34.087Z,2.03
2022-09-05T18:31:41.863Z,2.03
2022-09-05T18:34:21.424Z,1.58
2022-09-05T18:36:58.290Z,2.13
2022-09-05T18:39:37.019Z,2.58
2022-09-05T18:42:25.835Z,5.13
2022-09-05T18:44:59.665Z,2.17
2022-09-05T18:47:38.309Z,3.20
2022-09-05T18:50:26.297Z,2.28
2022-09-05T18:53:09.866Z,2.60
2022-09-05T18:56:13.885Z,1.83
2022-09-05T18:58:51.991Z,1.90
2022-09-05T19:01:45.419Z,1.93
2022-09-05T19:04:39.863Z,1.88
2022-09-05T19:07:22.314Z,2.95
2022-09-05T19:10:34.641Z,3.22
2022-09-05T19:13:09.401Z,2.80
2022-09-05T19:15:48.434Z,2.63
2022-09-05T19:18:36.931Z,2.17
2022-09-05T19:21:12.253Z,2.55
2022-09-05T19:23:57.388Z,2.33
2022-09-05T19:26:25.101Z,2.83
2022-09-05T19:36:49.568Z,2.42
2022-09-05T19:37:04.775Z,2.65
2022-09-05T19:37:06.389Z,2.60
2022-09-05T19:37:46.288Z,2.53
2022-09-05T19:44:50.356Z,2.42
2022-09-05T19:47:34.262Z,2.22
2022-09-05T19:47:37.192Z,2.47
2022-09-05T19:49:05.903Z,1.90
2022-09-05T19:51:36.590Z,2.15
2022-09-05T19:54:06.261Z,2.13
2022-09-05T19:56:40.222Z,2.05
2022-09-05T19:59:16.582Z,2.47
2022-09-05T20:01:47.041Z,2.30
2022-09-05T20:04:18.905Z,2.03
2022-09-05T20:06:50.225Z,2.33
2022-09-05T20:09:23.479Z,2.22
2022-09-05T20:11:57.858Z,2.15
2022-09-05T20:14:30.357Z,2.22
2022-09-05T20:17:31.151Z,2.63
2022-09-05T20:20:18.150Z,3.08
2022-09-05T20:22:50.573Z,2.72
2022-09-05T20:25:35.346Z,2.17
2022-09-05T20:28:12.153Z,3.08
2022-09-05T20:30:44.834Z,2.40
2022-09-05T20:33:27.987Z,2.65
2022-09-05T20:43:10.320Z,3.13
2022-09-05T20:43:18.012Z,3.38
2022-09-05T20:43:28.126Z,2.72
2022-09-05T20:44:50.492Z,2.75
2022-09-05T20:54:07.046Z,2.38
2022-09-05T20:54:15.840Z,1.95
2022-09-05T20:54:26.128Z,2.83
2022-09-05T20:56:02.026Z,2.47
2022-09-05T20:58:31.140Z,2.22
2022-09-05T21:01:21.120Z,2.72
2022-09-05T21:04:04.164Z,2.85
2022-09-05T21:06:35.737Z,2.88
2022-09-05T21:09:15.228Z,3.15
2022-09-05T21:11:43.434Z,2.47
2022-09-05T21:14:11.041Z,3.00
2022-09-05T21:16:47.555Z,2.45
2022-09-05T21:19:53.411Z,2.45
2022-09-05T21:22:30.177Z,2.25
2022-09-05T21:25:36.655Z,2.60
2022-09-05T21:28:24.443Z,2.58
2022-09-05T21:31:15.952Z,2.85
2022-09-05T21:33:46.414Z,3.08
2022-09-05T21:36:15.114Z,2.97
2022-09-05T21:38:42.504Z,2.63
2022-09-05T21:41:15.770Z,2.63
2022-09-05T21:47:44.955Z,1.83
2022-09-05T21:47:49.491Z,2.30
2022-09-05T21:49:22.582Z,2.55
2022-09-05T21:51:53.180Z,2.80
2022-09-05T21:59:00.461Z,2.35
2022-09-05T21:59:21.314Z,2.97
2022-09-05T22:00:20.319Z,2.75
2022-09-05T22:02:53.340Z,2.10
2022-09-05T22:05:25.517Z,2.33
2022-09-05T22:07:54.781Z,2.55
2022-09-05T22:10:30.885Z,2.28
2022-09-05T22:13:11.878Z,1.80
2022-09-05T22:15:39.160Z,4.25
2022-09-05T22:18:17.464Z,2.63
2022-09-05T22:21:31.978Z,2.10
2022-09-05T22:23:41.203Z,2.38
2022-09-05T22:26:10.141Z,1.90
2022-09-05T22:28:38.774Z,1.70
2022-09-05T22:31:08.210Z,1.95
2022-09-05T22:33:35.331Z,1.52
2022-09-05T22:36:04.919Z,2.20
2022-09-05T22:38:38.475Z,2.00
2022-09-05T22:41:06.001Z,1.88
2022-09-05T22:43:35.601Z,1.55
2022-09-05T22:46:03.623Z,1.83
2022-09-05T22:48:30.653Z,2.05
2022-09-05T22:51:00.739Z,1.88
2022-09-05T22:53:27.901Z,2.00
2022-09-05T22:56:02.460Z,2.13
2022-09-05T22:58:30.262Z,2.05
2022-09-05T23:01:01.144Z,1.90
2022-09-05T23:03:28.272Z,1.80
2022-09-05T23:06:13.310Z,1.70
2022-09-05T23:08:42.177Z,1.58
2022-09-05T23:11:13.866Z,1.92
2022-09-05T23:13:41.037Z,1.67
2022-09-05T23:16:09.123Z,1.63
2022-09-05T23:18:36.304Z,1.43
2022-09-05T23:21:11.017Z,2.35
2022-09-05T23:23:39.464Z,1.73
2022-09-05T23:26:09.584Z,1.83
2022-09-05T23:28:43.089Z,1.50
2022-09-05T23:31:10.551Z,1.60
2022-09-05T23:33:37.267Z,2.35
2022-09-05T23:36:12.613Z,1.85
2022-09-05T23:38:42.611Z,1.48
2022-09-05T23:41:16.087Z,2.15
2022-09-05T23:43:45.241Z,1.50
2022-09-05T23:46:14.387Z,2.03
2022-09-05T23:48:44.181Z,2.10
2022-09-05T23:51:12.928Z,1.80
2022-09-05T23:53:42.880Z,1.52
2022-09-05T23:56:11.019Z,1.73
2022-09-05T23:58:41.961Z,2.13
